sensor_id;sensor_type;location;lat;lon;timestamp;P1;durP1;ratioP1;P2;durP2;ratioP2
7957;SDS011;4024;52.172;5.378;2023-09-19T00:01:32;5.90;;;3.47;;
7957;SDS011;4024;52.172;5.378;2023-09-19T00:03:57;8.27;;;3.00;;
7957;SDS011;4024;52.172;5.378;2023-09-19T00:06:23;6.70;;;2.73;;
7957;SDS011;4024;52.172;5.378;2023-09-19T00:08:51;9.93;;;3.20;;
7957;SDS011;4024;52.172;5.378;2023-09-19T00:11:17;7.93;;;2.87;;
7957;SDS011;4024;52.172;5.378;2023-09-19T00:13:42;7.23;;;3.20;;
7957;SDS011;4024;52.172;5.378;2023-09-19T00:16:09;5.87;;;2.40;;
7957;SDS011;4024;52.172;5.378;2023-09-19T00:18:36;7.87;;;2.67;;
7957;SDS011;4024;52.172;5.378;2023-09-19T00:21:03;7.33;;;2.87;;
7957;SDS011;4024;52.172;5.378;2023-09-19T00:23:30;6.63;;;2.80;;
7957;SDS011;4024;52.172;5.378;2023-09-19T00:25:59;8.53;;;3.47;;
7957;SDS011;4024;52.172;5.378;2023-09-19T00:28:25;7.27;;;3.10;;
7957;SDS011;4024;52.172;5.378;2023-09-19T00:30:51;9.83;;;3.37;;
7957;SDS011;4024;52.172;5.378;2023-09-19T00:33:17;4.87;;;3.07;;
7957;SDS011;4024;52.172;5.378;2023-09-19T00:35:51;8.83;;;3.10;;
7957;SDS011;4024;52.172;5.378;2023-09-19T00:38:17;7.67;;;3.00;;
7957;SDS011;4024;52.172;5.378;2023-09-19T00:40:49;4.53;;;2.53;;
7957;SDS011;4024;52.172;5.378;2023-09-19T00:43:18;8.47;;;3.10;;
7957;SDS011;4024;52.172;5.378;2023-09-19T00:45:49;5.17;;;2.70;;
7957;SDS011;4024;52.172;5.378;2023-09-19T00:48:17;7.33;;;2.70;;
7957;SDS011;4024;52.172;5.378;2023-09-19T00:50:44;7.57;;;2.60;;
7957;SDS011;4024;52.172;5.378;2023-09-19T00:53:13;8.50;;;2.70;;
7957;SDS011;4024;52.172;5.378;2023-09-19T00:55:43;5.27;;;2.87;;
7957;SDS011;4024;52.172;5.378;2023-09-19T00:58:10;6.07;;;2.90;;
7957;SDS011;4024;52.172;5.378;2023-09-19T01:00:36;4.03;;;2.20;;
7957;SDS011;4024;52.172;5.378;2023-09-19T01:03:03;5.97;;;2.47;;
7957;SDS011;4024;52.172;5.378;2023-09-19T01:05:29;9.07;;;2.83;;
7957;SDS011;4024;52.172;5.378;2023-09-19T01:07:55;8.90;;;2.57;;
7957;SDS011;4024;52.172;5.378;2023-09-19T01:10:21;7.07;;;2.77;;
7957;SDS011;4024;52.172;5.378;2023-09-19T01:17:43;9.10;;;2.80;;
7957;SDS011;4024;52.172;5.378;2023-09-19T01:31:03;6.37;;;3.00;;
7957;SDS011;4024;52.172;5.378;2023-09-19T01:36:22;4.90;;;2.60;;
7957;SDS011;4024;52.172;5.378;2023-09-19T01:38:49;6.17;;;2.80;;
7957;SDS011;4024;52.172;5.378;2023-09-19T01:41:17;6.13;;;2.83;;
7957;SDS011;4024;52.172;5.378;2023-09-19T01:43:57;5.43;;;2.77;;
7957;SDS011;4024;52.172;5.378;2023-09-19T01:46:28;6.10;;;2.47;;
7957;SDS011;4024;52.172;5.378;2023-09-19T01:51:34;8.80;;;3.00;;
7957;SDS011;4024;52.172;5.378;2023-09-19T01:54:11;8.90;;;2.63;;
7957;SDS011;4024;52.172;5.378;2023-09-19T01:59:37;6.83;;;3.13;;
7957;SDS011;4024;52.172;5.378;2023-09-19T02:02:10;6.23;;;3.10;;
7957;SDS011;4024;52.172;5.378;2023-09-19T02:04:37;7.43;;;2.87;;
7957;SDS011;4024;52.172;5.378;2023-09-19T02:07:03;10.20;;;3.10;;
7957;SDS011;4024;52.172;5.378;2023-09-19T02:09:30;5.20;;;2.70;;
7957;SDS011;4024;52.172;5.378;2023-09-19T02:11:56;8.30;;;3.47;;
7957;SDS011;4024;52.172;5.378;2023-09-19T02:14:22;7.63;;;2.50;;
7957;SDS011;4024;52.172;5.378;2023-09-19T02:16:47;7.40;;;3.47;;
7957;SDS011;4024;52.172;5.378;2023-09-19T02:19:15;7.60;;;3.00;;
7957;SDS011;4024;52.172;5.378;2023-09-19T02:21:40;8.87;;;3.03;;
7957;SDS011;4024;52.172;5.378;2023-09-19T02:24:06;6.60;;;2.80;;
7957;SDS011;4024;52.172;5.378;2023-09-19T02:26:33;8.53;;;3.07;;
7957;SDS011;4024;52.172;5.378;2023-09-19T02:29:01;7.07;;;3.47;;
7957;SDS011;4024;52.172;5.378;2023-09-19T02:31:30;10.60;;;2.93;;
7957;SDS011;4024;52.172;5.378;2023-09-19T02:33:56;10.40;;;3.33;;
7957;SDS011;4024;52.172;5.378;2023-09-19T02:36:21;7.27;;;3.23;;
7957;SDS011;4024;52.172;5.378;2023-09-19T02:38:48;6.93;;;3.10;;
7957;SDS011;4024;52.172;5.378;2023-09-19T02:41:14;10.13;;;3.43;;
7957;SDS011;4024;52.172;5.378;2023-09-19T02:43:40;8.53;;;3.30;;
7957;SDS011;4024;52.172;5.378;2023-09-19T02:46:05;7.40;;;3.37;;
7957;SDS011;4024;52.172;5.378;2023-09-19T02:48:31;9.07;;;3.60;;
7957;SDS011;4024;52.172;5.378;2023-09-19T02:50:57;8.00;;;3.47;;
7957;SDS011;4024;52.172;5.378;2023-09-19T02:53:23;9.57;;;3.33;;
7957;SDS011;4024;52.172;5.378;2023-09-19T02:55:49;11.40;;;3.80;;
7957;SDS011;4024;52.172;5.378;2023-09-19T02:58:14;8.30;;;3.87;;
7957;SDS011;4024;52.172;5.378;2023-09-19T03:00:40;9.97;;;3.80;;
7957;SDS011;4024;52.172;5.378;2023-09-19T03:03:12;9.83;;;3.50;;
7957;SDS011;4024;52.172;5.378;2023-09-19T03:05:38;10.53;;;3.37;;
7957;SDS011;4024;52.172;5.378;2023-09-19T03:08:03;10.47;;;3.73;;
7957;SDS011;4024;52.172;5.378;2023-09-19T03:10:29;8.83;;;3.50;;
7957;SDS011;4024;52.172;5.378;2023-09-19T03:12:56;18.47;;;4.53;;
7957;SDS011;4024;52.172;5.378;2023-09-19T03:15:24;11.90;;;3.37;;
7957;SDS011;4024;52.172;5.378;2023-09-19T03:17:50;11.73;;;3.47;;
7957;SDS011;4024;52.172;5.378;2023-09-19T03:20:18;11.83;;;3.97;;
7957;SDS011;4024;52.172;5.378;2023-09-19T03:22:46;9.03;;;3.93;;
7957;SDS011;4024;52.172;5.378;2023-09-19T03:25:11;9.90;;;3.63;;
7957;SDS011;4024;52.172;5.378;2023-09-19T03:27:38;13.70;;;3.90;;
7957;SDS011;4024;52.172;5.378;2023-09-19T03:30:04;10.53;;;3.80;;
7957;SDS011;4024;52.172;5.378;2023-09-19T03:32:33;9.63;;;3.33;;
7957;SDS011;4024;52.172;5.378;2023-09-19T03:35:00;11.10;;;3.70;;
7957;SDS011;4024;52.172;5.378;2023-09-19T03:37:26;9.43;;;3.77;;
7957;SDS011;4024;52.172;5.378;2023-09-19T03:39:51;11.30;;;3.73;;
7957;SDS011;4024;52.172;5.378;2023-09-19T03:42:17;8.50;;;3.73;;
7957;SDS011;4024;52.172;5.378;2023-09-19T03:44:42;10.47;;;3.93;;
7957;SDS011;4024;52.172;5.378;2023-09-19T03:47:08;9.33;;;3.37;;
7957;SDS011;4024;52.172;5.378;2023-09-19T03:49:34;9.90;;;3.00;;
7957;SDS011;4024;52.172;5.378;2023-09-19T03:51:59;13.63;;;3.97;;
7957;SDS011;4024;52.172;5.378;2023-09-19T03:54:25;8.70;;;3.47;;
7957;SDS011;4024;52.172;5.378;2023-09-19T03:56:50;12.23;;;3.60;;
7957;SDS011;4024;52.172;5.378;2023-09-19T03:59:16;13.07;;;3.93;;
7957;SDS011;4024;52.172;5.378;2023-09-19T04:01:43;12.57;;;3.50;;
7957;SDS011;4024;52.172;5.378;2023-09-19T04:04:10;10.23;;;4.00;;
7957;SDS011;4024;52.172;5.378;2023-09-19T04:06:37;8.87;;;2.97;;
7957;SDS011;4024;52.172;5.378;2023-09-19T04:09:03;11.57;;;3.70;;
7957;SDS011;4024;52.172;5.378;2023-09-19T04:11:31;11.90;;;3.80;;
7957;SDS011;4024;52.172;5.378;2023-09-19T04:13:58;12.03;;;3.60;;
7957;SDS011;4024;52.172;5.378;2023-09-19T04:16:23;12.53;;;3.47;;
7957;SDS011;4024;52.172;5.378;2023-09-19T04:18:49;13.43;;;3.87;;
7957;SDS011;4024;52.172;5.378;2023-09-19T04:21:15;8.73;;;3.63;;
7957;SDS011;4024;52.172;5.378;2023-09-19T04:23:40;11.20;;;3.57;;
7957;SDS011;4024;52.172;5.378;2023-09-19T04:26:06;9.55;;;3.15;;
7957;SDS011;4024;52.172;5.378;2023-09-19T04:28:32;12.00;;;3.23;;
7957;SDS011;4024;52.172;5.378;2023-09-19T04:30:59;12.43;;;4.03;;
7957;SDS011;4024;52.172;5.378;2023-09-19T04:33:25;10.13;;;3.53;;
7957;SDS011;4024;52.172;5.378;2023-09-19T04:35:54;10.30;;;3.37;;
7957;SDS011;4024;52.172;5.378;2023-09-19T04:38:21;8.07;;;3.17;;
7957;SDS011;4024;52.172;5.378;2023-09-19T04:40:47;9.00;;;3.50;;
7957;SDS011;4024;52.172;5.378;2023-09-19T04:43:12;14.03;;;3.50;;
7957;SDS011;4024;52.172;5.378;2023-09-19T04:45:38;7.17;;;2.97;;
7957;SDS011;4024;52.172;5.378;2023-09-19T04:48:07;8.10;;;3.00;;
7957;SDS011;4024;52.172;5.378;2023-09-19T04:50:33;11.93;;;3.70;;
7957;SDS011;4024;52.172;5.378;2023-09-19T04:52:59;11.90;;;3.30;;
7957;SDS011;4024;52.172;5.378;2023-09-19T04:55:25;11.13;;;3.00;;
7957;SDS011;4024;52.172;5.378;2023-09-19T04:57:52;10.97;;;3.10;;
7957;SDS011;4024;52.172;5.378;2023-09-19T05:00:21;10.03;;;3.40;;
7957;SDS011;4024;52.172;5.378;2023-09-19T05:02:49;8.90;;;3.47;;
7957;SDS011;4024;52.172;5.378;2023-09-19T05:05:16;5.67;;;3.00;;
7957;SDS011;4024;52.172;5.378;2023-09-19T05:07:42;9.83;;;3.40;;
7957;SDS011;4024;52.172;5.378;2023-09-19T05:10:11;7.43;;;3.63;;
7957;SDS011;4024;52.172;5.378;2023-09-19T05:12:37;15.20;;;3.50;;
7957;SDS011;4024;52.172;5.378;2023-09-19T05:15:04;12.10;;;3.57;;
7957;SDS011;4024;52.172;5.378;2023-09-19T05:17:32;9.63;;;3.70;;
7957;SDS011;4024;52.172;5.378;2023-09-19T05:19:58;9.80;;;3.60;;
7957;SDS011;4024;52.172;5.378;2023-09-19T05:22:28;8.83;;;3.50;;
7957;SDS011;4024;52.172;5.378;2023-09-19T05:24:54;9.17;;;3.40;;
7957;SDS011;4024;52.172;5.378;2023-09-19T05:27:19;9.00;;;3.93;;
7957;SDS011;4024;52.172;5.378;2023-09-19T05:29:46;8.33;;;3.40;;
7957;SDS011;4024;52.172;5.378;2023-09-19T05:32:11;7.03;;;3.50;;
7957;SDS011;4024;52.172;5.378;2023-09-19T05:34:37;9.10;;;3.70;;
7957;SDS011;4024;52.172;5.378;2023-09-19T05:37:03;12.03;;;4.03;;
7957;SDS011;4024;52.172;5.378;2023-09-19T05:39:32;11.80;;;3.43;;
7957;SDS011;4024;52.172;5.378;2023-09-19T05:41:57;8.60;;;3.40;;
7957;SDS011;4024;52.172;5.378;2023-09-19T05:44:25;12.97;;;4.17;;
7957;SDS011;4024;52.172;5.378;2023-09-19T05:46:50;9.90;;;4.17;;
7957;SDS011;4024;52.172;5.378;2023-09-19T05:49:17;9.47;;;3.80;;
7957;SDS011;4024;52.172;5.378;2023-09-19T05:51:43;10.80;;;3.70;;
7957;SDS011;4024;52.172;5.378;2023-09-19T05:54:08;14.13;;;3.83;;
7957;SDS011;4024;52.172;5.378;2023-09-19T05:56:36;8.90;;;3.50;;
7957;SDS011;4024;52.172;5.378;2023-09-19T05:59:01;9.10;;;3.43;;
7957;SDS011;4024;52.172;5.378;2023-09-19T06:01:28;7.67;;;3.50;;
7957;SDS011;4024;52.172;5.378;2023-09-19T06:03:57;9.07;;;3.10;;
7957;SDS011;4024;52.172;5.378;2023-09-19T06:06:25;6.87;;;3.30;;
7957;SDS011;4024;52.172;5.378;2023-09-19T06:08:51;10.23;;;3.80;;
7957;SDS011;4024;52.172;5.378;2023-09-19T06:11:16;10.63;;;4.17;;
7957;SDS011;4024;52.172;5.378;2023-09-19T06:13:45;12.47;;;3.77;;
7957;SDS011;4024;52.172;5.378;2023-09-19T06:16:12;13.20;;;3.97;;
7957;SDS011;4024;52.172;5.378;2023-09-19T06:18:38;12.13;;;3.63;;
7957;SDS011;4024;52.172;5.378;2023-09-19T06:21:04;11.60;;;3.73;;
7957;SDS011;4024;52.172;5.378;2023-09-19T06:23:32;13.67;;;3.97;;
7957;SDS011;4024;52.172;5.378;2023-09-19T06:25:59;12.00;;;3.53;;
7957;SDS011;4024;52.172;5.378;2023-09-19T06:28:24;8.30;;;3.87;;
7957;SDS011;4024;52.172;5.378;2023-09-19T06:30:53;13.40;;;4.07;;
7957;SDS011;4024;52.172;5.378;2023-09-19T06:33:19;13.33;;;3.87;;
7957;SDS011;4024;52.172;5.378;2023-09-19T06:35:47;10.20;;;3.63;;
7957;SDS011;4024;52.172;5.378;2023-09-19T06:38:13;12.50;;;3.37;;
7957;SDS011;4024;52.172;5.378;2023-09-19T06:40:40;12.57;;;3.97;;
7957;SDS011;4024;52.172;5.378;2023-09-19T06:43:09;11.80;;;4.20;;
7957;SDS011;4024;52.172;5.378;2023-09-19T06:45:35;11.67;;;3.87;;
7957;SDS011;4024;52.172;5.378;2023-09-19T06:48:00;9.67;;;4.17;;
7957;SDS011;4024;52.172;5.378;2023-09-19T06:50:28;10.57;;;3.87;;
7957;SDS011;4024;52.172;5.378;2023-09-19T06:52:55;10.20;;;4.17;;
7957;SDS011;4024;52.172;5.378;2023-09-19T06:55:24;11.63;;;3.83;;
7957;SDS011;4024;52.172;5.378;2023-09-19T06:57:53;11.07;;;3.90;;
7957;SDS011;4024;52.172;5.378;2023-09-19T07:00:19;11.57;;;4.20;;
7957;SDS011;4024;52.172;5.378;2023-09-19T07:02:59;10.67;;;3.93;;
7957;SDS011;4024;52.172;5.378;2023-09-19T07:05:32;13.83;;;4.27;;
7957;SDS011;4024;52.172;5.378;2023-09-19T07:07:59;13.57;;;4.27;;
7957;SDS011;4024;52.172;5.378;2023-09-19T07:10:26;10.33;;;3.90;;
7957;SDS011;4024;52.172;5.378;2023-09-19T07:13:06;15.50;;;4.03;;
7957;SDS011;4024;52.172;5.378;2023-09-19T07:15:36;13.40;;;4.07;;
7957;SDS011;4024;52.172;5.378;2023-09-19T07:18:06;12.63;;;4.17;;
7957;SDS011;4024;52.172;5.378;2023-09-19T07:20:36;13.30;;;3.80;;
7957;SDS011;4024;52.172;5.378;2023-09-19T07:23:02;15.17;;;3.87;;
7957;SDS011;4024;52.172;5.378;2023-09-19T07:25:28;6.73;;;3.50;;
7957;SDS011;4024;52.172;5.378;2023-09-19T07:27:59;11.70;;;3.90;;
7957;SDS011;4024;52.172;5.378;2023-09-19T07:30:25;15.60;;;3.40;;
7957;SDS011;4024;52.172;5.378;2023-09-19T07:32:52;11.47;;;4.00;;
7957;SDS011;4024;52.172;5.378;2023-09-19T07:35:18;8.10;;;3.17;;
7957;SDS011;4024;52.172;5.378;2023-09-19T07:37:46;11.07;;;3.70;;
7957;SDS011;4024;52.172;5.378;2023-09-19T07:40:16;12.53;;;4.17;;
7957;SDS011;4024;52.172;5.378;2023-09-19T07:42:42;12.57;;;3.90;;
7957;SDS011;4024;52.172;5.378;2023-09-19T07:45:09;12.93;;;4.20;;
7957;SDS011;4024;52.172;5.378;2023-09-19T07:47:39;9.83;;;3.80;;
7957;SDS011;4024;52.172;5.378;2023-09-19T07:50:08;11.03;;;3.93;;
7957;SDS011;4024;52.172;5.378;2023-09-19T07:52:34;12.27;;;4.87;;
7957;SDS011;4024;52.172;5.378;2023-09-19T07:55:00;11.63;;;3.30;;
7957;SDS011;4024;52.172;5.378;2023-09-19T07:57:31;8.93;;;3.57;;
7957;SDS011;4024;52.172;5.378;2023-09-19T07:59:59;13.27;;;3.37;;
7957;SDS011;4024;52.172;5.378;2023-09-19T08:02:25;13.80;;;4.07;;
7957;SDS011;4024;52.172;5.378;2023-09-19T08:04:51;16.03;;;4.23;;
7957;SDS011;4024;52.172;5.378;2023-09-19T08:07:17;13.37;;;3.53;;
7957;SDS011;4024;52.172;5.378;2023-09-19T08:09:43;12.00;;;4.07;;
7957;SDS011;4024;52.172;5.378;2023-09-19T08:12:13;12.70;;;3.70;;
7957;SDS011;4024;52.172;5.378;2023-09-19T08:14:39;12.83;;;4.13;;
7957;SDS011;4024;52.172;5.378;2023-09-19T08:17:06;12.37;;;4.10;;
7957;SDS011;4024;52.172;5.378;2023-09-19T08:19:33;7.93;;;4.20;;
7957;SDS011;4024;52.172;5.378;2023-09-19T08:21:59;15.10;;;3.87;;
7957;SDS011;4024;52.172;5.378;2023-09-19T08:24:26;13.70;;;4.33;;
7957;SDS011;4024;52.172;5.378;2023-09-19T08:26:53;14.77;;;4.10;;
7957;SDS011;4024;52.172;5.378;2023-09-19T08:29:23;10.37;;;3.63;;
7957;SDS011;4024;52.172;5.378;2023-09-19T08:31:53;14.40;;;4.30;;
7957;SDS011;4024;52.172;5.378;2023-09-19T08:34:19;13.70;;;4.23;;
7957;SDS011;4024;52.172;5.378;2023-09-19T08:36:46;9.10;;;3.73;;
7957;SDS011;4024;52.172;5.378;2023-09-19T08:39:13;11.80;;;4.30;;
7957;SDS011;4024;52.172;5.378;2023-09-19T08:41:39;10.80;;;4.40;;
7957;SDS011;4024;52.172;5.378;2023-09-19T08:44:05;11.60;;;4.63;;
7957;SDS011;4024;52.172;5.378;2023-09-19T08:46:30;11.33;;;4.27;;
7957;SDS011;4024;52.172;5.378;2023-09-19T08:49:05;13.43;;;4.13;;
7957;SDS011;4024;52.172;5.378;2023-09-19T08:51:42;13.47;;;4.47;;
7957;SDS011;4024;52.172;5.378;2023-09-19T08:54:12;16.10;;;4.63;;
7957;SDS011;4024;52.172;5.378;2023-09-19T08:56:50;13.10;;;3.90;;
7957;SDS011;4024;52.172;5.378;2023-09-19T08:59:21;9.30;;;4.33;;
7957;SDS011;4024;52.172;5.378;2023-09-19T09:01:51;10.97;;;3.83;;
7957;SDS011;4024;52.172;5.378;2023-09-19T09:04:18;13.23;;;4.60;;
7957;SDS011;4024;52.172;5.378;2023-09-19T09:06:45;15.97;;;4.53;;
7957;SDS011;4024;52.172;5.378;2023-09-19T09:09:14;10.43;;;3.93;;
7957;SDS011;4024;52.172;5.378;2023-09-19T09:11:40;14.07;;;3.97;;
7957;SDS011;4024;52.172;5.378;2023-09-19T09:14:06;12.60;;;3.83;;
7957;SDS011;4024;52.172;5.378;2023-09-19T09:16:36;10.53;;;3.43;;
7957;SDS011;4024;52.172;5.378;2023-09-19T09:19:01;14.33;;;3.63;;
7957;SDS011;4024;52.172;5.378;2023-09-19T09:21:27;13.63;;;3.90;;
7957;SDS011;4024;52.172;5.378;2023-09-19T09:23:53;9.67;;;3.77;;
7957;SDS011;4024;52.172;5.378;2023-09-19T09:26:40;13.77;;;3.80;;
7957;SDS011;4024;52.172;5.378;2023-09-19T09:29:07;18.10;;;4.23;;
7957;SDS011;4024;52.172;5.378;2023-09-19T09:31:33;10.87;;;4.03;;
7957;SDS011;4024;52.172;5.378;2023-09-19T09:33:58;12.87;;;3.73;;
7957;SDS011;4024;52.172;5.378;2023-09-19T09:36:34;11.47;;;3.70;;
7957;SDS011;4024;52.172;5.378;2023-09-19T09:39:01;11.93;;;4.17;;
7957;SDS011;4024;52.172;5.378;2023-09-19T09:41:40;9.63;;;4.10;;
7957;SDS011;4024;52.172;5.378;2023-09-19T09:44:14;11.17;;;3.83;;
7957;SDS011;4024;52.172;5.378;2023-09-19T09:46:44;11.10;;;3.70;;
7957;SDS011;4024;52.172;5.378;2023-09-19T09:49:22;11.00;;;4.17;;
7957;SDS011;4024;52.172;5.378;2023-09-19T09:51:59;10.03;;;3.63;;
7957;SDS011;4024;52.172;5.378;2023-09-19T09:54:33;13.90;;;4.03;;
7957;SDS011;4024;52.172;5.378;2023-09-19T09:57:06;12.27;;;4.03;;
7957;SDS011;4024;52.172;5.378;2023-09-19T09:59:55;12.57;;;4.37;;
7957;SDS011;4024;52.172;5.378;2023-09-19T10:02:41;14.33;;;4.07;;
7957;SDS011;4024;52.172;5.378;2023-09-19T10:05:14;12.90;;;4.37;;
7957;SDS011;4024;52.172;5.378;2023-09-19T10:07:54;14.63;;;4.20;;
7957;SDS011;4024;52.172;5.378;2023-09-19T10:10:34;8.83;;;3.33;;
7957;SDS011;4024;52.172;5.378;2023-09-19T10:13:07;12.63;;;3.50;;
7957;SDS011;4024;52.172;5.378;2023-09-19T10:15:37;14.37;;;4.40;;
7957;SDS011;4024;52.172;5.378;2023-09-19T10:18:06;10.40;;;3.67;;
7957;SDS011;4024;52.172;5.378;2023-09-19T10:20:43;10.93;;;3.47;;
7957;SDS011;4024;52.172;5.378;2023-09-19T10:23:11;13.77;;;3.97;;
7957;SDS011;4024;52.172;5.378;2023-09-19T10:25:42;10.47;;;3.87;;
7957;SDS011;4024;52.172;5.378;2023-09-19T10:28:12;8.67;;;3.50;;
7957;SDS011;4024;52.172;5.378;2023-09-19T10:30:44;10.20;;;3.63;;
7957;SDS011;4024;52.172;5.378;2023-09-19T10:33:12;12.50;;;4.03;;
7957;SDS011;4024;52.172;5.378;2023-09-19T10:35:50;11.70;;;3.63;;
7957;SDS011;4024;52.172;5.378;2023-09-19T10:38:23;7.10;;;3.17;;
7957;SDS011;4024;52.172;5.378;2023-09-19T10:40:50;9.17;;;3.30;;
7957;SDS011;4024;52.172;5.378;2023-09-19T10:43:18;8.57;;;3.90;;
7957;SDS011;4024;52.172;5.378;2023-09-19T10:45:46;11.27;;;3.20;;
7957;SDS011;4024;52.172;5.378;2023-09-19T10:48:17;8.67;;;3.53;;
7957;SDS011;4024;52.172;5.378;2023-09-19T10:51:04;12.13;;;3.50;;
7957;SDS011;4024;52.172;5.378;2023-09-19T10:56:11;9.93;;;3.40;;
7957;SDS011;4024;52.172;5.378;2023-09-19T10:58:44;18.10;;;3.43;;
7957;SDS011;4024;52.172;5.378;2023-09-19T11:01:10;7.47;;;3.00;;
7957;SDS011;4024;52.172;5.378;2023-09-19T11:03:37;6.87;;;2.73;;
7957;SDS011;4024;52.172;5.378;2023-09-19T11:14:15;9.87;;;3.23;;
7957;SDS011;4024;52.172;5.378;2023-09-19T11:28:27;7.93;;;2.80;;
7957;SDS011;4024;52.172;5.378;2023-09-19T11:30:48;5.83;;;3.07;;
7957;SDS011;4024;52.172;5.378;2023-09-19T11:33:21;8.97;;;3.20;;
7957;SDS011;4024;52.172;5.378;2023-09-19T11:36:03;9.37;;;3.17;;
7957;SDS011;4024;52.172;5.378;2023-09-19T11:43:49;7.57;;;3.23;;
7957;SDS011;4024;52.172;5.378;2023-09-19T11:46:16;6.53;;;2.63;;
7957;SDS011;4024;52.172;5.378;2023-09-19T11:48:47;6.53;;;2.87;;
7957;SDS011;4024;52.172;5.378;2023-09-19T11:51:15;7.77;;;3.03;;
7957;SDS011;4024;52.172;5.378;2023-09-19T11:53:51;7.13;;;2.50;;
7957;SDS011;4024;52.172;5.378;2023-09-19T11:56:18;7.83;;;2.63;;
7957;SDS011;4024;52.172;5.378;2023-09-19T11:58:46;6.27;;;2.40;;
7957;SDS011;4024;52.172;5.378;2023-09-19T12:01:15;6.13;;;2.90;;
7957;SDS011;4024;52.172;5.378;2023-09-19T12:03:47;10.07;;;2.87;;
7957;SDS011;4024;52.172;5.378;2023-09-19T12:06:17;8.40;;;2.70;;
7957;SDS011;4024;52.172;5.378;2023-09-19T12:08:43;9.00;;;2.67;;
7957;SDS011;4024;52.172;5.378;2023-09-19T12:11:15;6.93;;;2.53;;
7957;SDS011;4024;52.172;5.378;2023-09-19T12:13:42;7.70;;;2.43;;
7957;SDS011;4024;52.172;5.378;2023-09-19T12:16:16;4.33;;;2.33;;
7957;SDS011;4024;52.172;5.378;2023-09-19T12:18:46;5.93;;;2.70;;
7957;SDS011;4024;52.172;5.378;2023-09-19T12:21:28;7.27;;;2.40;;
7957;SDS011;4024;52.172;5.378;2023-09-19T12:26:37;7.43;;;2.40;;
7957;SDS011;4024;52.172;5.378;2023-09-19T12:29:22;4.27;;;2.47;;
7957;SDS011;4024;52.172;5.378;2023-09-19T12:31:51;8.53;;;2.67;;
7957;SDS011;4024;52.172;5.378;2023-09-19T12:34:27;5.67;;;2.73;;
7957;SDS011;4024;52.172;5.378;2023-09-19T12:37:09;6.33;;;2.50;;
7957;SDS011;4024;52.172;5.378;2023-09-19T12:39:52;6.00;;;2.30;;
7957;SDS011;4024;52.172;5.378;2023-09-19T12:42:24;4.97;;;2.10;;
7957;SDS011;4024;52.172;5.378;2023-09-19T12:44:57;3.73;;;2.00;;
7957;SDS011;4024;52.172;5.378;2023-09-19T12:47:26;5.33;;;1.93;;
7957;SDS011;4024;52.172;5.378;2023-09-19T12:50:12;7.43;;;2.47;;
7957;SDS011;4024;52.172;5.378;2023-09-19T12:52:40;7.27;;;2.43;;
7957;SDS011;4024;52.172;5.378;2023-09-19T12:55:07;8.43;;;2.57;;
7957;SDS011;4024;52.172;5.378;2023-09-19T12:57:34;7.00;;;2.40;;
7957;SDS011;4024;52.172;5.378;2023-09-19T13:00:03;6.17;;;2.07;;
7957;SDS011;4024;52.172;5.378;2023-09-19T13:02:36;4.00;;;2.27;;
7957;SDS011;4024;52.172;5.378;2023-09-19T13:05:02;3.83;;;1.90;;
7957;SDS011;4024;52.172;5.378;2023-09-19T13:07:44;4.20;;;2.40;;
7957;SDS011;4024;52.172;5.378;2023-09-19T13:10:12;7.67;;;2.40;;
7957;SDS011;4024;52.172;5.378;2023-09-19T13:12:42;3.90;;;2.13;;
7957;SDS011;4024;52.172;5.378;2023-09-19T13:15:12;8.70;;;2.40;;
7957;SDS011;4024;52.172;5.378;2023-09-19T13:17:48;7.20;;;2.40;;
7957;SDS011;4024;52.172;5.378;2023-09-19T13:20:21;5.20;;;2.50;;
7957;SDS011;4024;52.172;5.378;2023-09-19T13:22:54;6.60;;;2.33;;
7957;SDS011;4024;52.172;5.378;2023-09-19T13:25:25;6.70;;;2.10;;
7957;SDS011;4024;52.172;5.378;2023-09-19T13:27:53;7.33;;;2.30;;
7957;SDS011;4024;52.172;5.378;2023-09-19T13:30:24;5.43;;;2.63;;
7957;SDS011;4024;52.172;5.378;2023-09-19T13:33:09;6.10;;;2.27;;
7957;SDS011;4024;52.172;5.378;2023-09-19T13:35:36;3.60;;;2.10;;
7957;SDS011;4024;52.172;5.378;2023-09-19T13:38:06;4.17;;;2.73;;
7957;SDS011;4024;52.172;5.378;2023-09-19T13:40:36;3.73;;;2.17;;
7957;SDS011;4024;52.172;5.378;2023-09-19T13:43:04;5.33;;;2.10;;
7957;SDS011;4024;52.172;5.378;2023-09-19T13:45:31;4.97;;;2.33;;
7957;SDS011;4024;52.172;5.378;2023-09-19T13:47:57;5.83;;;2.10;;
7957;SDS011;4024;52.172;5.378;2023-09-19T13:50:26;5.37;;;1.93;;
7957;SDS011;4024;52.172;5.378;2023-09-19T13:52:54;5.97;;;2.00;;
7957;SDS011;4024;52.172;5.378;2023-09-19T13:55:19;6.40;;;2.57;;
7957;SDS011;4024;52.172;5.378;2023-09-19T13:57:49;5.50;;;2.67;;
7957;SDS011;4024;52.172;5.378;2023-09-19T14:00:21;7.03;;;2.37;;
7957;SDS011;4024;52.172;5.378;2023-09-19T14:02:48;4.37;;;2.10;;
7957;SDS011;4024;52.172;5.378;2023-09-19T14:05:14;5.67;;;2.10;;
7957;SDS011;4024;52.172;5.378;2023-09-19T14:07:41;5.47;;;2.43;;
7957;SDS011;4024;52.172;5.378;2023-09-19T14:10:08;5.93;;;2.20;;
7957;SDS011;4024;52.172;5.378;2023-09-19T14:12:35;6.50;;;2.10;;
7957;SDS011;4024;52.172;5.378;2023-09-19T14:15:02;6.63;;;2.40;;
7957;SDS011;4024;52.172;5.378;2023-09-19T14:17:28;3.47;;;1.90;;
7957;SDS011;4024;52.172;5.378;2023-09-19T14:19:54;4.87;;;2.20;;
7957;SDS011;4024;52.172;5.378;2023-09-19T14:22:20;4.87;;;2.00;;
7957;SDS011;4024;52.172;5.378;2023-09-19T14:24:45;4.90;;;2.03;;
7957;SDS011;4024;52.172;5.378;2023-09-19T14:27:12;5.03;;;2.30;;
7957;SDS011;4024;52.172;5.378;2023-09-19T14:29:38;8.23;;;2.83;;
7957;SDS011;4024;52.172;5.378;2023-09-19T14:32:04;6.83;;;2.90;;
7957;SDS011;4024;52.172;5.378;2023-09-19T14:34:30;3.33;;;2.37;;
7957;SDS011;4024;52.172;5.378;2023-09-19T14:36:56;8.27;;;2.83;;
7957;SDS011;4024;52.172;5.378;2023-09-19T14:39:22;5.50;;;2.40;;
7957;SDS011;4024;52.172;5.378;2023-09-19T14:41:48;4.93;;;2.80;;
7957;SDS011;4024;52.172;5.378;2023-09-19T14:44:14;5.37;;;2.60;;
7957;SDS011;4024;52.172;5.378;2023-09-19T14:46:41;6.47;;;2.90;;
7957;SDS011;4024;52.172;5.378;2023-09-19T14:49:10;6.33;;;2.70;;
7957;SDS011;4024;52.172;5.378;2023-09-19T14:51:37;6.07;;;2.47;;
7957;SDS011;4024;52.172;5.378;2023-09-19T14:54:04;6.63;;;2.90;;
7957;SDS011;4024;52.172;5.378;2023-09-19T14:56:32;3.77;;;2.67;;
7957;SDS011;4024;52.172;5.378;2023-09-19T14:58:57;4.50;;;2.50;;
7957;SDS011;4024;52.172;5.378;2023-09-19T15:01:23;7.20;;;2.90;;
7957;SDS011;4024;52.172;5.378;2023-09-19T15:03:48;9.70;;;3.00;;
7957;SDS011;4024;52.172;5.378;2023-09-19T15:06:14;3.53;;;2.97;;
7957;SDS011;4024;52.172;5.378;2023-09-19T15:08:42;4.30;;;2.80;;
7957;SDS011;4024;52.172;5.378;2023-09-19T15:11:16;6.93;;;3.37;;
7957;SDS011;4024;52.172;5.378;2023-09-19T15:13:42;6.70;;;3.20;;
7957;SDS011;4024;52.172;5.378;2023-09-19T15:16:09;5.53;;;3.13;;
7957;SDS011;4024;52.172;5.378;2023-09-19T15:18:36;7.33;;;3.10;;
7957;SDS011;4024;52.172;5.378;2023-09-19T15:21:03;4.50;;;2.60;;
7957;SDS011;4024;52.172;5.378;2023-09-19T15:23:29;5.07;;;2.93;;
7957;SDS011;4024;52.172;5.378;2023-09-19T15:25:57;8.10;;;3.37;;
7957;SDS011;4024;52.172;5.378;2023-09-19T15:28:23;7.43;;;3.27;;
7957;SDS011;4024;52.172;5.378;2023-09-19T15:30:49;9.07;;;3.00;;
7957;SDS011;4024;52.172;5.378;2023-09-19T15:33:19;7.60;;;2.77;;
7957;SDS011;4024;52.172;5.378;2023-09-19T15:35:45;9.77;;;3.00;;
7957;SDS011;4024;52.172;5.378;2023-09-19T15:38:10;7.63;;;3.10;;
7957;SDS011;4024;52.172;5.378;2023-09-19T15:40:37;4.77;;;2.70;;
7957;SDS011;4024;52.172;5.378;2023-09-19T15:43:11;7.43;;;3.20;;
7957;SDS011;4024;52.172;5.378;2023-09-19T15:45:37;8.03;;;3.20;;
7957;SDS011;4024;52.172;5.378;2023-09-19T15:48:03;5.97;;;2.77;;
7957;SDS011;4024;52.172;5.378;2023-09-19T15:50:29;7.50;;;3.07;;
7957;SDS011;4024;52.172;5.378;2023-09-19T15:52:55;6.90;;;3.27;;
7957;SDS011;4024;52.172;5.378;2023-09-19T15:55:21;6.87;;;3.23;;
7957;SDS011;4024;52.172;5.378;2023-09-19T15:57:47;6.60;;;3.10;;
7957;SDS011;4024;52.172;5.378;2023-09-19T16:00:13;11.63;;;3.60;;
7957;SDS011;4024;52.172;5.378;2023-09-19T16:02:42;6.30;;;3.03;;
7957;SDS011;4024;52.172;5.378;2023-09-19T16:05:09;7.37;;;3.27;;
7957;SDS011;4024;52.172;5.378;2023-09-19T16:07:36;7.27;;;3.53;;
7957;SDS011;4024;52.172;5.378;2023-09-19T16:10:02;5.63;;;2.73;;
7957;SDS011;4024;52.172;5.378;2023-09-19T16:12:29;3.97;;;2.77;;